Time;durP1;ratioP1;P1;durP2;ratioP2;P2;SDS_P1;SDS_P2;PMS_P1;PMS_P2;Temp;Humidity;BMP_temperature;BMP_pressure;BME280_temperature;BME280_humidity;BME280_pressure;Samples;Min_cycle;Max_cycle;Signal;HPM_P1;HPM_P2
2023/10/02 03:57:11;;;;;;;8.57;5.60;;;;;;;10.56;100.00;100176.13;5209853;23;20238;-80
2023/10/02 03:59:52;;;;;;;10.00;5.97;;;;;;;10.58;100.00;100174.06;4943280;29;20264;-80
2023/10/02 04:02:26;;;;;;;10.07;5.83;;;;;;;10.58;100.00;100176.75;4943743;29;20186;-80
2023/10/02 04:04:55;;;;;;;10.43;5.97;;;;;;;10.58;100.00;100184.78;4911419;29;20198;-80
2023/10/02 04:07:38;;;;;;;9.70;6.27;;;;;;;10.59;100.00;100180.25;4931918;29;20205;-80
2023/10/02 04:10:13;;;;;;;11.43;6.60;;;;;;;10.59;100.00;100182.94;4943550;29;20193;-81
2023/10/02 04:12:50;;;;;;;9.53;5.90;;;;;;;10.54;100.00;100186.22;4944806;29;20206;-81
2023/10/02 04:15:24;;;;;;;11.27;6.10;;;;;;;10.54;100.00;100191.56;4930414;29;20276;-81
2023/10/02 04:17:52;;;;;;;9.63;5.90;;;;;;;10.48;100.00;100189.72;4944753;29;20570;-81
2023/10/02 04:20:32;;;;;;;9.83;6.20;;;;;;;10.49;100.00;100185.19;4945189;29;20218;-81
2023/10/02 04:23:18;;;;;;;9.93;5.83;;;;;;;10.52;100.00;100185.59;4931260;29;20210;-81
2023/10/02 04:26:08;;;;;;;9.87;6.50;;;;;;;10.56;100.00;100180.66;4955640;29;20205;-82
2023/10/02 04:29:28;;;;;;;10.97;6.53;;;;;;;10.62;100.00;100189.72;4968421;28;20283;-82
2023/10/02 04:36:15;;;;;;;10.47;6.17;;;;;;;10.61;100.00;100191.59;4917232;29;20198;-82
2023/10/02 04:56:46;;;;;;;12.97;7.00;;;;;;;10.59;100.00;100199.03;4768811;30;20199;-83
2023/10/02 05:00:19;;;;;;;9.77;6.07;;;;;;;10.60;100.00;100188.06;4768944;30;20264;-83
2023/10/02 05:06:55;;;;;;;9.30;6.00;;;;;;;10.74;100.00;100210.34;4812061;29;20216;-83
2023/10/02 05:18:54;;;;;;;12.57;6.57;;;;;;;10.89;100.00;100220.84;4849138;29;20240;-85
2023/10/02 05:39:42;;;;;;;11.43;6.10;;;;;;;11.62;100.00;100221.53;4936514;29;20217;-82
2023/10/02 05:42:20;;;;;;;10.30;6.20;;;;;;;11.75;100.00;100222.34;4933356;29;20190;-81
2023/10/02 05:45:07;;;;;;;13.13;6.83;;;;;;;11.91;100.00;100221.03;4949412;29;20227;-82
2023/10/02 05:47:37;;;;;;;13.43;6.13;;;;;;;12.04;100.00;100223.63;4942184;29;20229;-82
2023/10/02 05:50:32;;;;;;;14.37;6.10;;;;;;;12.16;100.00;100224.63;4918483;29;20182;-81
2023/10/02 05:53:21;;;;;;;14.20;5.80;;;;;;;12.30;100.00;100226.19;4949016;29;20548;-81
2023/10/02 05:56:04;;;;;;;10.57;6.10;;;;;;;12.44;100.00;100232.28;4948732;29;20190;-81
2023/10/02 05:58:56;;;;;;;12.33;5.90;;;;;;;12.60;100.00;100228.25;4947192;29;20406;-81
2023/10/02 06:01:47;;;;;;;9.97;6.10;;;;;;;12.70;100.00;100234.78;4933669;29;20243;-81
2023/10/02 06:04:43;;;;;;;12.87;5.90;;;;;;;12.81;100.00;100233.25;4930175;29;20196;-81
2023/10/02 06:10:25;;;;;;;12.17;6.10;;;;;;;13.11;100.00;100246.91;4929668;29;20664;-80
2023/10/02 06:13:05;;;;;;;12.73;6.40;;;;;;;13.23;100.00;100243.25;4942358;29;20200;-80
2023/10/02 06:15:48;;;;;;;11.07;6.17;;;;;;;13.38;100.00;100239.41;4942615;29;20282;-80
2023/10/02 06:18:30;;;;;;;11.43;6.10;;;;;;;13.49;100.00;100238.63;4911984;29;20865;-80
2023/10/02 06:21:00;;;;;;;15.77;6.53;;;;;;;13.61;100.00;100245.75;4941024;29;20271;-79
2023/10/02 06:23:37;;;;;;;11.67;6.40;;;;;;;13.71;100.00;100245.25;4923387;29;20177;-79
2023/10/02 06:26:09;;;;;;;12.10;5.90;;;;;;;13.84;100.00;100246.94;4925243;29;20200;-79
2023/10/02 06:28:39;;;;;;;13.37;6.03;;;;;;;13.93;100.00;100243.72;4924980;29;20738;-79
2023/10/02 06:31:08;;;;;;;12.23;6.13;;;;;;;14.03;100.00;100238.63;4925574;29;20208;-79
2023/10/02 06:33:36;;;;;;;12.20;6.10;;;;;;;14.14;100.00;100238.91;4942639;29;20205;-79
2023/10/02 06:36:08;;;;;;;17.27;7.10;;;;;;;14.28;100.00;100245.72;4944227;29;20200;-79
2023/10/02 06:38:38;;;;;;;11.40;6.37;;;;;;;14.37;100.00;100239.81;4928310;29;20201;-79
2023/10/02 06:41:09;;;;;;;16.33;6.53;;;;;;;14.48;100.00;100238.22;4945280;29;20238;-79
2023/10/02 06:43:38;;;;;;;14.70;6.23;;;;;;;14.61;100.00;100234.50;4929394;29;20248;-79
2023/10/02 06:46:09;;;;;;;13.27;6.07;;;;;;;14.72;100.00;100236.41;4945977;29;20186;-79
2023/10/02 06:48:43;;;;;;;13.93;6.70;;;;;;;14.82;100.00;100237.47;4944819;29;20259;-79
2023/10/02 06:51:13;;;;;;;14.40;6.33;;;;;;;14.95;100.00;100239.13;4941490;29;20268;-79
2023/10/02 06:53:42;;;;;;;19.27;6.93;;;;;;;15.07;100.00;100234.56;4939558;29;20185;-80
2023/10/02 06:56:12;;;;;;;15.53;6.67;;;;;;;15.20;100.00;100231.66;4937933;29;20193;-79
2023/10/02 06:58:49;;;;;;;13.93;6.20;;;;;;;15.31;100.00;100241.59;4919731;29;20202;-79
2023/10/02 07:01:30;;;;;;;11.40;5.80;;;;;;;15.46;100.00;100240.31;4922330;29;20194;-80
2023/10/02 07:04:08;;;;;;;12.00;6.57;;;;;;;15.56;100.00;100240.56;4936733;29;20540;-78
2023/10/02 07:06:38;;;;;;;14.10;6.47;;;;;;;15.71;100.00;100241.72;4936798;29;20229;-79
2023/10/02 07:09:10;;;;;;;11.83;6.37;;;;;;;15.83;100.00;100239.78;4936394;29;20724;-79
2023/10/02 07:11:42;;;;;;;10.87;6.37;;;;;;;15.95;100.00;100242.47;4936340;29;20273;-79
2023/10/02 07:14:11;;;;;;;12.67;6.20;;;;;;;16.06;100.00;100238.91;4936376;29;20198;-79
2023/10/02 07:16:39;;;;;;;12.23;5.73;;;;;;;16.19;100.00;100248.63;4936542;29;20190;-79
2023/10/02 07:19:07;;;;;;;13.20;6.60;;;;;;;16.32;100.00;100245.63;4936345;29;20591;-79
2023/10/02 07:21:40;;;;;;;12.77;6.60;;;;;;;16.45;100.00;100245.31;4936140;29;20696;-80
2023/10/02 07:24:25;;;;;;;15.63;7.10;;;;;;;16.58;100.00;100244.22;4936070;29;20209;-79
2023/10/02 07:26:53;;;;;;;14.90;6.63;;;;;;;16.74;100.00;100238.03;4921873;29;20202;-80
2023/10/02 07:29:37;;;;;;;13.00;6.17;;;;;;;16.86;100.00;100237.94;4927194;29;20222;-79
2023/10/02 07:32:08;;;;;;;11.90;6.37;;;;;;;17.00;100.00;100237.34;4911369;29;20218;-79
2023/10/02 07:34:38;;;;;;;14.77;6.80;;;;;;;17.17;100.00;100240.88;4915739;29;20218;-79
2023/10/02 07:37:06;;;;;;;14.60;6.07;;;;;;;17.30;100.00;100244.31;4908214;29;20230;-81
2023/10/02 07:39:37;;;;;;;12.83;6.27;;;;;;;17.41;100.00;100246.09;4915671;29;20222;-82
2023/10/02 07:42:10;;;;;;;11.13;5.80;;;;;;;17.54;100.00;100251.16;4915542;29;20194;-82
2023/10/02 07:44:38;;;;;;;10.83;5.83;;;;;;;17.67;100.00;100244.59;4915818;29;20217;-82
2023/10/02 07:47:20;;;;;;;11.73;6.03;;;;;;;17.80;100.00;100244.22;4903694;29;20194;-82
2023/10/02 07:49:55;;;;;;;12.33;6.20;;;;;;;17.91;100.00;100244.09;4900368;29;20579;-81
2023/10/02 07:52:35;;;;;;;12.43;6.57;;;;;;;18.09;100.00;100239.41;4909114;29;20210;-82
2023/10/02 07:55:10;;;;;;;13.50;6.77;;;;;;;18.30;100.00;100243.97;4914856;29;20196;-82
2023/10/02 07:57:38;;;;;;;12.90;6.87;;;;;;;18.42;100.00;100240.06;4916126;29;20202;-82
2023/10/02 08:00:33;;;;;;;11.60;6.43;;;;;;;18.57;100.00;100244.81;4915887;29;20754;-82
2023/10/02 08:02:55;;;;;;;10.37;5.70;;;;;;;18.63;100.00;100240.25;4901483;29;20208;-90
2023/10/02 08:05:25;;;;;;;9.60;6.03;;;;;;;18.69;100.00;100237.34;4878717;29;20214;-89
2023/10/02 08:08:08;;;;;;;12.93;6.83;;;;;;;18.85;100.00;100230.13;4892013;29;20213;-92
2023/10/02 08:10:49;;;;;;;12.73;6.43;;;;;;;19.13;100.00;100235.25;4878380;29;20206;-89
2023/10/02 08:13:17;;;;;;;13.33;6.80;;;;;;;19.21;100.00;100233.94;4880516;29;20211;-89
2023/10/02 08:15:46;;;;;;;13.30;7.00;;;;;;;19.30;100.00;100229.66;4884378;29;20201;-90
2023/10/02 08:18:19;;;;;;;10.30;5.80;;;;;;;19.41;100.00;100238.72;4889463;29;20219;-90
2023/10/02 08:20:48;;;;;;;9.67;6.37;;;;;;;19.47;100.00;100229.50;4882511;29;20250;-89
2023/10/02 08:23:22;;;;;;;11.70;6.70;;;;;;;19.54;100.00;100230.13;4886652;29;20203;-91
2023/10/02 08:26:02;;;;;;;10.23;6.73;;;;;;;19.67;100.00;100226.91;4884508;29;20205;-90
2023/10/02 08:28:36;;;;;;;10.77;6.43;;;;;;;19.77;100.00;100229.69;4886901;29;20227;-92
2023/10/02 08:31:13;;;;;;;10.03;6.23;;;;;;;19.87;100.00;100226.19;4887049;29;20209;-91
2023/10/02 08:33:43;;;;;;;12.20;6.60;;;;;;;20.05;100.00;100225.72;4892424;29;20234;-89
2023/10/02 08:36:28;;;;;;;10.50;6.33;;;;;;;20.25;100.00;100233.13;4873796;29;20243;-90
2023/10/02 08:38:57;;;;;;;10.80;6.50;;;;;;;20.38;100.00;100236.16;4875942;29;20304;-90
2023/10/02 08:41:44;;;;;;;10.10;6.00;;;;;;;20.52;100.00;100231.84;4884147;29;20211;-91
2023/10/02 08:44:13;;;;;;;10.13;6.77;;;;;;;20.69;100.00;100230.75;4874457;29;20225;-89
2023/10/02 08:46:43;;;;;;;9.93;6.75;;;;;;;20.78;100.00;100219.03;4884209;29;20664;-89
2023/10/02 08:49:14;;;;;;;12.23;7.10;;;;;;;20.90;100.00;100225.03;4880292;29;20302;-90
2023/10/02 08:51:51;;;;;;;13.10;6.57;;;;;;;21.02;100.00;100216.59;4894878;29;20212;-90
2023/10/02 08:54:19;;;;;;;10.82;6.57;;;;;;;21.21;100.00;100216.88;4874127;29;20253;-90
2023/10/02 08:57:01;;;;;;;10.30;6.22;;;;;;;21.38;100.00;100220.09;4888861;29;20194;-90
2023/10/02 08:59:35;;;;;;;13.27;6.13;;;;;;;21.48;100.00;100214.63;4876482;29;20260;-90
2023/10/02 09:02:16;;;;;;;13.63;6.50;;;;;;;21.62;100.00;100220.28;4879192;29;20229;-89
2023/10/02 09:04:53;;;;;;;10.52;6.57;;;;;;;21.76;100.00;100222.16;4879098;29;20661;-90
2023/10/02 09:07:23;;;;;;;10.75;6.13;;;;;;;21.86;100.00;100213.94;4901040;29;20229;-90
2023/10/02 09:10:12;;;;;;;9.70;6.25;;;;;;;22.08;100.00;100208.13;4878793;29;20234;-90
2023/10/02 09:12:50;;;;;;;9.02;6.00;;;;;;;22.13;100.00;100204.53;4889121;29;20221;-90
2023/10/02 09:15:30;;;;;;;10.77;6.10;;;;;;;22.21;100.00;100202.03;4874528;29;20213;-90
2023/10/02 09:18:19;;;;;;;8.82;5.68;;;;;;;22.26;100.00;100196.53;4891568;29;20203;-89
2023/10/02 09:21:04;;;;;;;8.40;6.10;;;;;;;22.31;100.00;100196.50;4888285;29;20316;-89
2023/10/02 09:23:32;;;;;;;8.63;5.75;;;;;;;22.51;100.00;100189.28;4888542;29;20230;-89
2023/10/02 09:26:24;;;;;;;9.73;6.28;;;;;;;22.72;100.00;100185.34;4872312;29;20204;-89
2023/10/02 09:28:58;;;;;;;8.30;6.18;;;;;;;22.79;100.00;100174.88;4891943;29;20248;-89
2023/10/02 09:31:30;;;;;;;10.70;5.88;;;;;;;22.90;99.65;100173.69;4879091;29;20206;-90
2023/10/02 09:34:16;;;;;;;8.73;5.80;;;;;;;22.95;100.00;100176.38;4877799;29;20210;-89
2023/10/02 09:37:11;;;;;;;9.23;5.25;;;;;;;22.86;100.00;100172.66;4910033;29;20330;-89
2023/10/02 09:40:03;;;;;;;9.00;5.88;;;;;;;22.99;100.00;100179.34;4919833;29;20232;-88
2023/10/02 09:42:33;;;;;;;8.77;6.10;;;;;;;23.18;99.48;100166.59;4924007;29;20214;-89
2023/10/02 09:45:08;;;;;;;9.30;5.80;;;;;;;23.26;100.00;100163.22;4923573;29;20299;-89
2023/10/02 09:47:37;;;;;;;8.70;5.88;;;;;;;23.08;100.00;100164.78;4927528;29;20197;-88
2023/10/02 09:50:26;;;;;;;9.38;6.65;;;;;;;23.28;100.00;100158.28;4920947;29;20317;-88
2023/10/02 09:53:00;;;;;;;8.50;5.78;;;;;;;23.44;99.01;100154.28;4922374;29;20205;-88
2023/10/02 09:55:42;;;;;;;9.52;5.80;;;;;;;23.56;100.00;100153.88;4908101;29;20257;-89
2023/10/02 09:58:26;;;;;;;8.15;5.85;;;;;;;23.59;98.67;100154.09;4945040;29;20202;-88
2023/10/02 10:03:55;;;;;;;11.05;6.13;;;;;;;23.94;93.25;100146.50;4930993;29;20207;-89
2023/10/02 10:06:29;;;;;;;7.97;5.63;;;;;;;23.98;92.38;100142.88;4905846;29;20280;-89
2023/10/02 10:11:43;;;;;;;8.85;5.95;;;;;;;24.15;89.37;100150.59;4936234;29;20235;-88
2023/10/02 10:14:38;;;;;;;9.88;6.20;;;;;;;24.26;88.29;100141.16;4922469;29;20665;-89
2023/10/02 10:17:14;;;;;;;9.32;5.72;;;;;;;24.36;92.27;100138.25;4939541;29;20213;-87
2023/10/02 10:20:08;;;;;;;8.02;5.68;;;;;;;24.45;89.37;100138.41;4925015;29;20227;-89
2023/10/02 10:22:50;;;;;;;7.47;5.70;;;;;;;24.53;92.34;100127.56;4945620;29;20240;-89
2023/10/02 10:25:42;;;;;;;8.98;5.75;;;;;;;24.50;91.20;100117.19;4930520;29;20295;-89
2023/10/02 10:28:14;;;;;;;8.93;6.07;;;;;;;24.63;89.51;100123.84;4917921;29;20728;-89
2023/10/02 10:30:50;;;;;;;10.20;6.15;;;;;;;24.70;90.77;100120.69;4912758;29;20207;-90
2023/10/02 10:33:26;;;;;;;9.65;6.45;;;;;;;24.71;89.81;100125.88;4921255;29;20670;-91
2023/10/02 10:35:57;;;;;;;8.70;5.78;;;;;;;24.72;90.93;100110.25;4921219;29;20204;-89
2023/10/02 10:38:26;;;;;;;7.55;5.80;;;;;;;24.87;91.09;100110.03;4921774;29;20237;-88
2023/10/02 10:41:01;;;;;;;10.00;6.40;;;;;;;24.97;90.33;100115.28;4925124;29;20261;-89
2023/10/02 10:46:28;;;;;;;7.03;5.47;;;;;;;25.04;86.98;100110.25;4938094;29;20213;-89
2023/10/02 10:48:59;;;;;;;7.03;5.43;;;;;;;25.02;84.15;100104.22;4920983;29;20204;-89
2023/10/02 10:51:33;;;;;;;9.20;6.00;;;;;;;25.12;84.44;100109.53;4922623;29;20256;-90
2023/10/02 10:54:27;;;;;;;10.75;6.03;;;;;;;25.18;84.33;100108.31;4932478;29;20212;-89
2023/10/02 10:57:27;;;;;;;9.38;6.05;;;;;;;25.28;85.64;100107.31;4917495;29;20213;-89
2023/10/02 11:00:23;;;;;;;8.88;6.13;;;;;;;25.44;85.57;100094.88;4920361;29;20228;-89
2023/10/02 11:03:19;;;;;;;9.05;6.07;;;;;;;25.48;85.58;100093.16;4906342;29;20194;-90
2023/10/02 11:05:47;;;;;;;8.45;6.18;;;;;;;25.53;85.00;100086.75;4922510;29;20276;-90
2023/10/02 11:08:25;;;;;;;9.30;6.00;;;;;;;25.53;85.86;100089.47;4920808;29;20220;-93
2023/10/02 11:11:06;;;;;;;9.27;6.32;;;;;;;25.60;84.81;100084.44;4905062;29;20261;-91
2023/10/02 11:13:59;;;;;;;9.13;6.53;;;;;;;25.64;84.42;100078.03;4934307;29;20205;-91
2023/10/02 11:16:31;;;;;;;7.55;5.88;;;;;;;25.60;84.42;100078.94;4920562;29;20213;-91
2023/10/02 11:19:21;;;;;;;9.18;6.32;;;;;;;25.66;83.89;100067.53;4905131;29;20205;-91
2023/10/02 11:22:15;;;;;;;8.73;6.13;;;;;;;25.75;84.79;100062.97;4922076;29;20239;-91
2023/10/02 11:24:45;;;;;;;8.73;6.35;;;;;;;25.90;84.47;100064.53;4919275;29;20668;-89
2023/10/02 11:27:18;;;;;;;8.15;6.18;;;;;;;25.96;83.36;100066.03;4936020;29;20205;-89
2023/10/02 11:30:01;;;;;;;8.10;6.05;;;;;;;26.03;83.97;100054.63;4920678;29;20229;-90
2023/10/02 11:32:53;;;;;;;8.95;6.00;;;;;;;26.00;82.58;100056.06;4919185;29;20231;-90
2023/10/02 11:35:28;;;;;;;9.07;6.40;;;;;;;26.06;83.53;100051.25;4935320;29;20386;-90
2023/10/02 11:37:57;;;;;;;10.05;5.82;;;;;;;26.14;82.27;100045.81;4924440;28;20244;-90
2023/10/02 11:40:28;;;;;;;10.10;6.00;;;;;;;26.07;83.04;100048.22;4909121;29;20230;-90
2023/10/02 11:42:59;;;;;;;9.05;6.07;;;;;;;25.95;84.25;100045.19;4932405;29;20341;-90
2023/10/02 11:45:32;;;;;;;10.38;6.25;;;;;;;26.11;82.20;100048.38;4917209;29;20201;-90
2023/10/02 11:48:00;;;;;;;8.93;6.45;;;;;;;26.24;82.61;100044.78;4915786;29;20213;-90
2023/10/02 11:50:27;;;;;;;10.13;6.45;;;;;;;26.34;82.92;100040.97;4919773;29;20205;-90
2023/10/02 11:52:55;;;;;;;8.07;6.30;;;;;;;26.48;82.26;100039.78;4898017;29;20205;-90
2023/10/02 11:55:24;;;;;;;9.65;6.22;;;;;;;26.62;81.76;100032.25;4918063;29;20206;-89
2023/10/02 11:57:52;;;;;;;9.35;6.80;;;;;;;26.55;82.21;100028.34;4919862;29;20209;-90
2023/10/02 12:00:20;;;;;;;8.52;6.15;;;;;;;26.56;81.88;100022.50;4920202;29;20230;-91
2023/10/02 12:02:49;;;;;;;9.00;6.93;;;;;;;26.64;82.50;100029.19;4900449;29;20205;-90
2023/10/02 12:05:18;;;;;;;9.32;6.57;;;;;;;26.66;82.53;100010.44;4913002;29;20293;-90
2023/10/02 12:07:46;;;;;;;9.00;6.60;;;;;;;26.64;83.29;100007.22;4929890;28;20251;-90
2023/10/02 12:10:15;;;;;;;9.10;6.57;;;;;;;26.66;83.52;100013.19;4911083;29;20202;-90
2023/10/02 12:12:45;;;;;;;8.88;6.20;;;;;;;26.68;83.66;99995.25;4913028;29;20296;-90
2023/10/02 12:15:14;;;;;;;10.55;6.75;;;;;;;26.71;83.45;100005.63;4915893;29;20202;-91
2023/10/02 12:17:47;;;;;;;9.65;6.60;;;;;;;26.71;83.68;99997.38;4921191;29;20217;-91
2023/10/02 12:20:22;;;;;;;8.38;6.32;;;;;;;26.73;83.13;99995.13;4920660;29;20704;-90
2023/10/02 12:22:51;;;;;;;9.02;6.85;;;;;;;26.86;84.17;99995.34;4914632;29;20282;-90
2023/10/02 12:25:19;;;;;;;10.50;6.93;;;;;;;26.90;83.63;99999.09;4911908;29;20206;-90
2023/10/02 12:27:46;;;;;;;9.30;6.90;;;;;;;27.02;84.62;99991.00;4919588;29;20254;-89
2023/10/02 12:30:14;;;;;;;9.18;6.50;;;;;;;27.16;83.16;99988.94;4935142;29;20218;-90
2023/10/02 12:32:42;;;;;;;11.25;6.93;;;;;;;27.20;81.77;99984.44;4906549;29;20214;-90
2023/10/02 12:35:10;;;;;;;7.88;6.80;;;;;;;27.23;83.31;99977.47;4903861;29;20268;-91
2023/10/02 12:37:41;;;;;;;10.73;6.43;;;;;;;27.38;82.84;99975.09;4926208;29;20245;-91
2023/10/02 12:40:16;;;;;;;11.20;7.05;;;;;;;27.41;83.11;99973.63;4896883;29;20218;-90
2023/10/02 12:42:46;;;;;;;8.93;6.85;;;;;;;27.36;83.13;99969.09;4911708;29;20209;-90
2023/10/02 12:45:14;;;;;;;10.98;6.93;;;;;;;27.15;84.75;99966.16;4901467;29;20207;-90
2023/10/02 12:47:42;;;;;;;10.00;7.10;;;;;;;27.15;84.68;99960.66;4919606;29;20668;-90
2023/10/02 12:50:11;;;;;;;8.50;7.15;;;;;;;27.20;85.00;99965.19;4921485;29;20198;-92
2023/10/02 12:52:39;;;;;;;9.23;6.93;;;;;;;27.23;85.62;99963.72;4924022;29;20198;-90
2023/10/02 12:55:07;;;;;;;9.23;7.03;;;;;;;27.19;86.06;99951.75;4919382;29;20190;-91
2023/10/02 12:57:37;;;;;;;9.05;7.20;;;;;;;27.45;85.10;99950.63;4923805;29;20202;-91
2023/10/02 13:00:16;;;;;;;11.18;7.15;;;;;;;27.52;84.11;99961.19;4905351;29;20197;-90
2023/10/02 13:02:45;;;;;;;10.45;7.35;;;;;;;27.45;83.29;99950.63;4909303;29;20258;-91
2023/10/02 13:05:14;;;;;;;12.25;7.40;;;;;;;27.27;83.37;99942.69;4939580;29;20208;-90
2023/10/02 13:07:44;;;;;;;10.80;7.18;;;;;;;27.08;84.20;99941.06;4924217;29;20198;-91
2023/10/02 13:10:14;;;;;;;10.48;7.40;;;;;;;27.02;84.70;99947.84;4921050;29;20201;-94
2023/10/02 13:12:43;;;;;;;10.98;7.63;;;;;;;26.97;85.08;99942.47;4923785;29;20189;-92
2023/10/02 13:15:13;;;;;;;10.40;7.45;;;;;;;26.78;85.32;99935.63;4923589;29;20202;-91
2023/10/02 13:17:42;;;;;;;12.43;7.65;;;;;;;26.89;85.31;99942.47;4923241;29;20260;-91
2023/10/02 13:20:10;;;;;;;10.13;7.25;;;;;;;27.12;85.62;99933.78;4911433;29;20221;-91
2023/10/02 13:22:40;;;;;;;10.98;7.10;;;;;;;27.13;83.79;99937.34;4920537;29;20203;-92
2023/10/02 13:25:11;;;;;;;9.18;7.47;;;;;;;27.15;83.76;99929.59;4920168;29;20213;-93
2023/10/02 13:27:41;;;;;;;10.93;7.18;;;;;;;27.11;83.74;99929.41;4919958;29;20187;-92
2023/10/02 13:30:11;;;;;;;10.48;7.60;;;;;;;26.90;84.30;99931.16;4904296;29;20229;-93
2023/10/02 13:32:40;;;;;;;9.32;7.13;;;;;;;27.03;85.11;99929.41;4920006;29;20199;-93
2023/10/02 13:35:09;;;;;;;9.93;7.13;;;;;;;26.90;84.43;99930.34;4920222;29;20657;-92
2023/10/02 13:37:38;;;;;;;10.80;7.35;;;;;;;26.82;84.77;99918.19;4921511;29;20246;-92
2023/10/02 13:40:18;;;;;;;10.13;7.85;;;;;;;26.85;85.77;99908.47;4907422;29;20225;-92
2023/10/02 13:42:49;;;;;;;13.75;8.00;;;;;;;26.83;84.64;99911.53;4923064;29;20205;-90
2023/10/02 13:45:19;;;;;;;10.65;7.40;;;;;;;26.85;83.79;99911.22;4922456;29;20205;-92
2023/10/02 13:47:48;;;;;;;9.13;6.95;;;;;;;26.99;84.20;99917.44;4937778;29;20198;-91
2023/10/02 13:50:16;;;;;;;9.63;7.65;;;;;;;27.01;84.68;99912.44;4906251;29;20198;-92
2023/10/02 13:52:43;;;;;;;10.05;7.40;;;;;;;27.20;84.06;99901.13;4922403;29;20213;-91
2023/10/02 13:55:30;;;;;;;11.23;7.28;;;;;;;27.23;83.06;99908.72;4921990;29;20210;-91
2023/10/02 13:57:57;;;;;;;10.63;7.40;;;;;;;27.13;82.72;99901.59;4924750;29;20653;-91
2023/10/02 14:00:27;;;;;;;8.98;7.20;;;;;;;27.09;82.99;99904.19;4910738;29;20213;-92
2023/10/02 14:02:55;;;;;;;9.00;7.28;;;;;;;27.10;82.37;99905.00;4921969;29;20233;-92
2023/10/02 14:05:29;;;;;;;11.52;7.22;;;;;;;27.00;81.84;99908.06;4906013;29;20212;-93
2023/10/02 14:07:57;;;;;;;12.85;7.75;;;;;;;26.93;82.56;99903.03;4931030;29;20217;-91
2023/10/02 14:10:25;;;;;;;9.90;7.45;;;;;;;26.89;82.67;99899.31;4922545;29;20583;-92
2023/10/02 14:12:52;;;;;;;9.13;7.32;;;;;;;26.84;82.12;99896.66;4905862;29;20220;-91
2023/10/02 14:15:20;;;;;;;10.95;7.00;;;;;;;26.73;82.34;99887.94;4921745;29;20265;-91
2023/10/02 14:17:51;;;;;;;11.23;7.57;;;;;;;26.68;82.60;99887.28;4921284;29;20213;-91
2023/10/02 14:20:20;;;;;;;11.18;7.60;;;;;;;26.66;82.61;99895.00;4921402;29;20229;-91
2023/10/02 14:22:48;;;;;;;10.65;7.15;;;;;;;26.55;82.75;99885.47;4929873;29;20194;-90
2023/10/02 14:25:16;;;;;;;10.45;7.20;;;;;;;26.44;83.01;99886.88;4916222;29;20206;-92
2023/10/02 14:27:45;;;;;;;11.05;8.05;;;;;;;26.40;82.31;99888.66;4909028;29;20212;-91
2023/10/02 14:30:13;;;;;;;9.20;7.22;;;;;;;26.41;82.37;99887.53;4940707;29;20230;-91
2023/10/02 14:32:46;;;;;;;11.13;7.40;;;;;;;26.29;82.40;99886.19;4921012;29;20205;-91
2023/10/02 14:35:19;;;;;;;10.75;7.43;;;;;;;26.22;82.88;99882.28;4937263;29;20232;-91
2023/10/02 14:37:49;;;;;;;13.18;7.40;;;;;;;26.23;82.66;99879.19;4920810;29;20281;-92
2023/10/02 14:40:23;;;;;;;9.82;7.35;;;;;;;26.07;83.31;99883.47;4905855;29;20202;-92
2023/10/02 14:42:50;;;;;;;11.20;7.80;;;;;;;26.10;83.60;99885.56;4922079;29;20248;-92
2023/10/02 14:45:17;;;;;;;9.25;7.22;;;;;;;26.10;83.83;99876.53;4920292;29;20265;-90
2023/10/02 14:47:45;;;;;;;11.15;7.57;;;;;;;26.08;83.74;99876.06;4907971;29;20201;-90
2023/10/02 14:50:16;;;;;;;10.65;7.60;;;;;;;26.22;83.89;99879.53;4892290;29;20229;-91
2023/10/02 14:52:44;;;;;;;11.00;7.70;;;;;;;26.17;83.82;99876.91;4895113;29;20213;-91
2023/10/02 14:55:17;;;;;;;11.02;7.68;;;;;;;26.17;84.00;99879.63;4920508;29;20304;-91
2023/10/02 14:57:49;;;;;;;11.10;7.55;;;;;;;26.12;83.84;99883.34;4921221;29;20237;-92
2023/10/02 15:00:21;;;;;;;10.23;7.63;;;;;;;26.05;84.27;99882.16;4921836;29;20197;-92
2023/10/02 15:02:50;;;;;;;13.55;7.72;;;;;;;26.00;84.36;99872.13;4923130;29;20214;-94
2023/10/02 15:05:18;;;;;;;9.90;7.30;;;;;;;26.15;83.95;99873.63;4907642;29;20205;-93
2023/10/02 15:07:47;;;;;;;10.00;7.55;;;;;;;25.97;84.15;99869.19;4906871;29;20220;-93
2023/10/02 15:10:17;;;;;;;11.80;7.78;;;;;;;25.94;84.23;99873.41;4908552;29;20402;-95
2023/10/02 15:12:52;;;;;;;11.75;7.90;;;;;;;25.97;84.63;99878.25;4914924;29;20193;-94
2023/10/02 15:15:24;;;;;;;11.85;7.65;;;;;;;26.00;84.67;99876.78;4932862;29;20197;-92
2023/10/02 15:17:53;;;;;;;10.50;6.97;;;;;;;26.02;84.71;99874.56;4918435;29;20210;-94
2023/10/02 15:20:23;;;;;;;11.35;7.82;;;;;;;25.86;85.51;99876.88;4911344;29;20201;-94
2023/10/02 15:22:58;;;;;;;11.68;7.70;;;;;;;25.78;85.80;99872.16;4910652;29;20715;-94
2023/10/02 15:25:30;;;;;;;11.70;7.53;;;;;;;25.68;86.02;99866.94;4926996;29;20284;-94
2023/10/02 15:28:00;;;;;;;11.13;7.47;;;;;;;25.63;86.97;99861.56;4926317;29;20185;-94
2023/10/02 15:30:28;;;;;;;11.00;8.15;;;;;;;25.51;86.98;99864.06;4941959;29;20202;-94
2023/10/02 15:40:37;;;;;;;11.52;7.85;;;;;;;25.09;89.32;99866.16;4894886;29;20310;-77
2023/10/02 15:43:09;;;;;;;13.15;7.47;;;;;;;24.93;90.50;99868.44;4896640;29;20217;-77
2023/10/02 15:45:38;;;;;;;12.45;7.65;;;;;;;24.87;91.85;99869.66;4896545;29;20210;-80
2023/10/02 15:48:05;;;;;;;12.88;7.75;;;;;;;24.81;92.66;99864.59;4880867;29;20213;-77
2023/10/02 15:50:36;;;;;;;13.30;7.95;;;;;;;24.67;93.28;99866.53;4897070;29;20187;-86
2023/10/02 15:53:05;;;;;;;10.50;7.63;;;;;;;24.56;94.18;99861.25;4896862;29;20205;-86
2023/10/02 15:55:39;;;;;;;10.77;7.72;;;;;;;24.49;94.93;99860.88;4880564;29;20207;-86
2023/10/02 15:58:14;;;;;;;12.38;7.95;;;;;;;24.38;96.17;99864.94;4881554;29;20195;-86
2023/10/02 16:00:49;;;;;;;10.10;7.32;;;;;;;24.34;97.31;99863.13;4896933;29;20566;-86
2023/10/02 16:03:17;;;;;;;11.90;7.85;;;;;;;24.20;98.49;99867.78;4877941;29;20668;-86
2023/10/02 16:05:48;;;;;;;13.30;7.82;;;;;;;24.10;99.81;99864.09;4871132;29;20213;-86
2023/10/02 16:08:16;;;;;;;14.40;8.32;;;;;;;24.02;100.00;99867.53;4882910;29;20271;-85
2023/10/02 16:10:48;;;;;;;10.90;7.93;;;;;;;23.91;100.00;99868.81;4864477;29;20214;-86
2023/10/02 16:13:17;;;;;;;13.10;8.10;;;;;;;23.79;100.00;99865.78;4862713;29;20265;-85
2023/10/02 16:15:50;;;;;;;11.48;7.65;;;;;;;23.61;100.00;99861.16;4846545;29;20214;-85
2023/10/02 16:18:20;;;;;;;11.80;8.23;;;;;;;23.49;100.00;99869.84;4861758;29;20687;-86
2023/10/02 16:20:48;;;;;;;13.27;7.78;;;;;;;23.34;100.00;99867.31;4878614;29;20199;-85
2023/10/02 16:23:18;;;;;;;13.18;8.07;;;;;;;23.25;100.00;99872.66;4854131;29;20209;-85
2023/10/02 16:25:46;;;;;;;11.32;7.97;;;;;;;23.11;100.00;99869.03;4854935;29;20212;-86
2023/10/02 16:28:18;;;;;;;11.38;8.00;;;;;;;23.02;100.00;99873.53;4851255;29;20210;-86
2023/10/02 16:30:46;;;;;;;12.50;8.45;;;;;;;22.94;100.00;99870.66;4865499;29;20222;-86
2023/10/02 16:33:19;;;;;;;12.43;7.90;;;;;;;22.80;100.00;99878.78;4866528;29;20226;-86
2023/10/02 16:35:51;;;;;;;10.88;8.18;;;;;;;22.67;100.00;99877.56;4835878;29;20273;-86
2023/10/02 16:38:22;;;;;;;10.73;7.95;;;;;;;22.50;100.00;99877.22;4850031;29;20202;-86
2023/10/02 16:40:50;;;;;;;11.52;8.45;;;;;;;22.42;100.00;99891.50;4846659;29;20199;-86
2023/10/02 16:43:18;;;;;;;13.07;8.57;;;;;;;22.24;100.00;99884.09;4842954;29;20230;-86
2023/10/02 16:45:47;;;;;;;12.48;8.50;;;;;;;22.07;100.00;99889.19;4846944;29;20231;-85
2023/10/02 16:48:20;;;;;;;14.82;9.23;;;;;;;21.94;100.00;99885.22;4831396;29;20222;-86
2023/10/02 16:50:49;;;;;;;11.85;9.68;;;;;;;21.78;100.00;99884.53;4859007;29;20199;-86
2023/10/02 16:53:19;;;;;;;13.00;8.73;;;;;;;21.62;100.00;99885.75;4845392;29;20204;-85
2023/10/02 16:55:54;;;;;;;14.73;9.27;;;;;;;21.47;100.00;99888.59;4862192;29;20372;-86
2023/10/02 16:58:26;;;;;;;15.07;9.80;;;;;;;21.32;100.00;99889.53;4831262;29;20674;-86
2023/10/02 17:00:56;;;;;;;14.65;9.50;;;;;;;21.24;100.00;99892.84;4859961;29;20241;-86